Charles City, IA

8:10 AM CDT on August 29, 2016 (GMT -0500)
Downtown Charles City | | Change Station

Elev 991 ft 43.07 °N, 92.67 °W | Updated 12 seconds ago

Clear
Clear
72.5 °F
Feels Like 72 °F
N
3.2
Wind Variable Wind from East

Today
High -- | Low -- °F
--% Chance of Precip.
Yesterday
High -- | Low -- °F
Precip. -- in
Pressure 30.23 in
Visibility 8.0 miles
Clouds Clear
Heat Index 72 °F
Dew Point 67 °F
Humidity 82%
Rainfall 0.00 in
Snow Depth Not available.
6:32 AM 7:49 PM
Waning Crescent, 9% visible
METAR KCCY 291315Z AUTO 11004KT 8SM CLR 20/20 A3023 RMK AO2
Pressure 30.23 in
Visibility 8.0 miles
Clouds Clear
Heat Index 72 °F
Dew Point 67 °F
Humidity 82%
Rainfall 0.00 in
Snow Depth Not available.
6:32 AM 7:49 PM
Waning Crescent, 9% visible
METAR KCCY 291315Z AUTO 11004KT 8SM CLR 20/20 A3023 RMK AO2

10-Day Weather Forecast

Almanac

Astronomy

Aug. 29, 2016 Rise Set
Actual Time
Civil Twilight
Nautical Twilight
Astronomical Twilight
Moon
Length of Visible Light
Length of Day
Tomorrow will be .
, % of the Moon is Illuminated

Today's Extremes

State Highs State Lows

Community

WunderPhotos

Upload Photos

1,935,812 photos uploaded!

WunderBlog® & News

Nearby

Air Quality

  Air Quality AQ Index Pollutant
Not available.

Snow Depth

Station Depth Elevation

Earthquake Activity

City Distance Mag. Time & Date
Minimum magnitude displayed is 2.5.

Coastal Water Temperatures

Place Temperature

Stations

Nearby Weather Stations

Station Location Temp. Windchill Dew Point Humidity Wind Precip. Elev Updated Type
                   

Watches & Warnings

There are currently no watches in effect.